createdAt,value
2018-10-06T00:01:34.503Z,58.40
2018-10-06T00:04:04.923Z,58.40
2018-10-06T00:06:36.270Z,58.20
2018-10-06T00:09:07.823Z,58.10
2018-10-06T00:11:37.594Z,58.10
2018-10-06T00:14:08.684Z,58.10
2018-10-06T00:16:39.419Z,58.10
2018-10-06T00:19:10.012Z,58.20
2018-10-06T00:21:41.313Z,58.10
2018-10-06T00:24:12.479Z,58.20
2018-10-06T00:26:45.394Z,58.10
2018-10-06T00:29:17.954Z,58.10
2018-10-06T00:31:48.200Z,58.20
2018-10-06T00:34:19.844Z,58.50
2018-10-06T00:36:50.333Z,58.50
2018-10-06T00:39:21.909Z,58.50
2018-10-06T00:41:53.299Z,58.60
2018-10-06T00:44:24.100Z,58.70
2018-10-06T00:46:55.157Z,58.70
2018-10-06T00:49:27.053Z,58.80
2018-10-06T00:51:58.442Z,58.90
2018-10-06T00:54:29.517Z,59.00
2018-10-06T00:57:01.039Z,58.80
2018-10-06T00:59:32.497Z,59.00
2018-10-06T01:02:02.719Z,59.00
2018-10-06T01:04:33.081Z,59.00
2018-10-06T01:07:03.349Z,59.00
2018-10-06T01:09:34.804Z,59.00
2018-10-06T01:12:05.426Z,59.00
2018-10-06T01:14:37.557Z,59.00
2018-10-06T01:17:08.384Z,59.10
2018-10-06T01:19:39.772Z,59.20
2018-10-06T01:22:10.707Z,59.00
2018-10-06T01:24:41.188Z,59.10
2018-10-06T01:27:13.472Z,59.20
2018-10-06T01:29:43.220Z,59.10
2018-10-06T01:32:15.016Z,59.10
2018-10-06T01:34:45.429Z,59.10
2018-10-06T01:37:15.389Z,59.10
2018-10-06T01:39:45.084Z,59.20
2018-10-06T01:42:14.876Z,59.20
2018-10-06T01:44:44.545Z,59.30
2018-10-06T01:47:14.636Z,59.30
2018-10-06T01:49:45.544Z,59.30
2018-10-06T01:52:15.197Z,59.40
2018-10-06T01:54:45.066Z,59.40
2018-10-06T01:57:15.992Z,59.60
2018-10-06T01:59:45.616Z,59.60
2018-10-06T02:02:15.659Z,59.60
2018-10-06T02:04:45.273Z,59.70
2018-10-06T02:07:16.140Z,59.80
2018-10-06T02:09:45.992Z,59.80
2018-10-06T02:12:16.320Z,60.10
2018-10-06T02:14:46.038Z,60.40
2018-10-06T02:17:15.678Z,60.80
2018-10-06T02:19:48.581Z,61.10
2018-10-06T02:22:18.449Z,61.10
2018-10-06T02:25:13.019Z,61.30
2018-10-06T02:27:44.717Z,61.60
2018-10-06T02:30:25.585Z,62.10
2018-10-06T02:32:59.795Z,62.50
2018-10-06T02:35:30.141Z,62.90
2018-10-06T02:37:59.824Z,63.30
2018-10-06T02:40:29.356Z,63.50
2018-10-06T02:42:59.187Z,63.70
2018-10-06T02:45:29.338Z,64.00
2018-10-06T02:47:58.939Z,64.30
2018-10-06T02:50:28.639Z,64.50
2018-10-06T02:53:01.065Z,64.70
2018-10-06T02:55:31.051Z,64.90
2018-10-06T02:58:00.796Z,65.20
2018-10-06T03:00:31.172Z,65.40
2018-10-06T03:03:01.236Z,65.60
2018-10-06T03:05:31.749Z,65.90
2018-10-06T03:08:04.579Z,66.10
2018-10-06T03:10:34.592Z,66.20
2018-10-06T03:13:06.632Z,66.40
2018-10-06T03:15:40.549Z,66.50
2018-10-06T03:18:10.202Z,66.80
2018-10-06T03:20:40.592Z,66.90
2018-10-06T03:23:10.857Z,67.10
2018-10-06T03:25:42.782Z,67.30
2018-10-06T03:28:14.199Z,67.30
2018-10-06T03:30:44.026Z,67.40
2018-10-06T03:33:15.225Z,67.50
2018-10-06T03:35:46.491Z,67.70
2018-10-06T03:38:16.661Z,67.90
2018-10-06T03:40:49.953Z,67.90
2018-10-06T03:43:20.518Z,68.10
2018-10-06T03:45:51.196Z,68.30
2018-10-06T03:48:26.035Z,68.40
2018-10-06T03:50:56.248Z,68.60
2018-10-06T03:53:25.730Z,68.70
2018-10-06T03:55:57.591Z,68.70
2018-10-06T03:58:28.368Z,68.90
2018-10-06T04:01:03.462Z,69.10
2018-10-06T04:03:33.162Z,69.20
2018-10-06T04:06:03.437Z,69.40
2018-10-06T04:08:34.182Z,69.50
2018-10-06T04:11:03.824Z,69.40
2018-10-06T04:13:33.966Z,69.50
2018-10-06T04:16:04.401Z,69.20
2018-10-06T04:18:34.468Z,69.30
2018-10-06T04:21:05.273Z,69.20
2018-10-06T04:23:36.342Z,68.90
2018-10-06T04:26:05.993Z,69.20
2018-10-06T04:28:36.113Z,70.10
2018-10-06T04:31:05.692Z,69.50
2018-10-06T04:33:35.460Z,69.40
2018-10-06T04:36:06.538Z,69.40
2018-10-06T04:38:36.428Z,69.50
2018-10-06T04:41:06.393Z,69.50
2018-10-06T04:43:36.599Z,69.60
2018-10-06T04:46:07.830Z,69.80
2018-10-06T04:48:37.355Z,69.90
2018-10-06T04:51:07.237Z,69.90
2018-10-06T04:53:38.384Z,69.90
2018-10-06T04:56:08.587Z,70.00
2018-10-06T04:58:38.729Z,70.00
2018-10-06T05:01:08.182Z,70.30
2018-10-06T05:03:37.697Z,70.10
2018-10-06T05:06:07.955Z,70.20
2018-10-06T05:08:37.649Z,70.10
2018-10-06T05:11:08.108Z,70.10
2018-10-06T05:13:37.885Z,70.30
2018-10-06T05:16:07.612Z,70.30
2018-10-06T05:18:37.520Z,70.20
2018-10-06T05:21:08.016Z,70.10
2018-10-06T05:23:39.106Z,70.20
2018-10-06T05:26:13.089Z,70.10
2018-10-06T05:28:42.696Z,70.10
2018-10-06T05:31:12.385Z,70.10
2018-10-06T05:33:42.602Z,70.00
2018-10-06T05:36:13.934Z,70.00
2018-10-06T05:38:44.600Z,70.00
2018-10-06T05:41:15.484Z,70.00
2018-10-06T05:43:46.853Z,70.00
2018-10-06T05:46:17.266Z,70.00
2018-10-06T05:48:47.968Z,69.80
2018-10-06T05:51:18.946Z,70.00
2018-10-06T05:53:50.458Z,69.90
2018-10-06T05:56:23.235Z,69.70
2018-10-06T05:58:53.811Z,69.60
2018-10-06T06:01:26.812Z,69.70
2018-10-06T06:03:56.988Z,69.60
2018-10-06T06:06:28.401Z,69.60
2018-10-06T06:09:00.120Z,69.70
2018-10-06T06:11:32.164Z,69.80
2018-10-06T06:14:02.885Z,69.60
2018-10-06T06:16:33.253Z,69.60
2018-10-06T06:19:06.000Z,69.60
2018-10-06T06:21:35.937Z,70.40
2018-10-06T06:24:06.324Z,69.50
2018-10-06T06:26:37.813Z,69.50
2018-10-06T06:29:08.978Z,69.60
2018-10-06T06:31:39.636Z,69.60
2018-10-06T06:34:11.441Z,70.30
2018-10-06T06:36:43.079Z,69.40
2018-10-06T06:39:14.852Z,69.20
2018-10-06T06:41:45.848Z,69.10
2018-10-06T06:44:17.715Z,68.80
2018-10-06T06:46:48.715Z,68.80
2018-10-06T06:49:19.132Z,69.00
2018-10-06T06:51:49.993Z,69.00
2018-10-06T06:54:21.876Z,68.90
2018-10-06T06:56:54.157Z,68.90
2018-10-06T06:59:23.852Z,68.90
2018-10-06T07:01:54.846Z,68.80
2018-10-06T07:04:25.396Z,68.70
2018-10-06T07:06:57.283Z,68.70
2018-10-06T07:09:28.527Z,68.70
2018-10-06T07:11:58.764Z,68.70
2018-10-06T07:14:31.106Z,68.70
2018-10-06T07:17:02.828Z,68.60
2018-10-06T07:19:34.484Z,68.80
2018-10-06T07:22:04.927Z,68.70
2018-10-06T07:24:36.305Z,68.80
2018-10-06T07:27:07.316Z,68.80
2018-10-06T07:29:37.917Z,68.60
2018-10-06T07:32:08.312Z,68.60
2018-10-06T07:34:38.656Z,68.60
2018-10-06T07:37:10.777Z,69.40
2018-10-06T07:39:41.738Z,68.60
2018-10-06T07:42:12.779Z,68.60
2018-10-06T07:44:43.841Z,68.60
2018-10-06T07:47:15.211Z,68.60
2018-10-06T07:49:45.597Z,68.60
2018-10-06T07:52:17.619Z,68.50
2018-10-06T07:54:50.191Z,68.40
2018-10-06T07:57:23.254Z,68.90
2018-10-06T07:59:54.120Z,68.70
2018-10-06T08:02:24.946Z,68.60
2018-10-06T08:04:55.473Z,68.70
2018-10-06T08:07:26.892Z,68.70
2018-10-06T08:09:57.132Z,68.60
2018-10-06T08:12:28.722Z,68.50
2018-10-06T08:15:03.988Z,68.50
2018-10-06T08:17:34.621Z,68.40
2018-10-06T08:20:04.503Z,68.40
2018-10-06T08:22:34.631Z,68.90
2018-10-06T08:25:09.181Z,68.20
2018-10-06T08:27:39.963Z,68.10
2018-10-06T08:30:10.270Z,68.10
2018-10-06T08:32:40.771Z,68.10
2018-10-06T08:35:10.571Z,68.40
2018-10-06T08:37:42.065Z,68.90
2018-10-06T08:40:13.281Z,68.60
2018-10-06T08:42:43.671Z,68.30
2018-10-06T08:45:14.885Z,68.30
2018-10-06T08:47:46.269Z,68.10
2018-10-06T08:50:17.899Z,67.90
2018-10-06T08:52:49.360Z,67.70
2018-10-06T08:55:20.113Z,67.40
2018-10-06T08:57:51.886Z,67.30
2018-10-06T09:00:23.717Z,67.20
2018-10-06T09:02:54.860Z,66.90
2018-10-06T09:05:25.297Z,66.80
2018-10-06T09:07:55.857Z,66.70
2018-10-06T09:10:27.912Z,66.50
2018-10-06T09:13:02.109Z,66.30
2018-10-06T09:15:33.393Z,66.00
2018-10-06T09:18:04.453Z,66.00
2018-10-06T09:20:35.185Z,65.90
2018-10-06T09:23:04.900Z,65.70
2018-10-06T09:25:35.381Z,65.60
2018-10-06T09:28:06.254Z,65.20
2018-10-06T09:30:37.249Z,65.10
2018-10-06T09:33:08.660Z,64.60
2018-10-06T09:35:38.948Z,64.70
2018-10-06T09:38:09.616Z,64.60
2018-10-06T09:40:39.900Z,64.60
2018-10-06T09:43:10.113Z,64.60
2018-10-06T09:45:41.297Z,64.30
2018-10-06T09:48:11.938Z,64.10
2018-10-06T09:50:41.396Z,64.20
2018-10-06T09:53:10.985Z,64.00
2018-10-06T09:55:41.678Z,63.90
2018-10-06T09:58:11.276Z,63.90
2018-10-06T10:00:46.820Z,64.00
2018-10-06T10:03:23.814Z,64.00
2018-10-06T10:05:55.590Z,64.00
2018-10-06T10:08:25.008Z,64.00
2018-10-06T10:10:56.928Z,64.10
2018-10-06T10:13:28.088Z,64.30
2018-10-06T10:15:57.876Z,64.20
2018-10-06T10:18:29.875Z,63.90
2018-10-06T10:21:01.687Z,63.70
2018-10-06T10:23:33.319Z,63.80
2018-10-06T10:26:07.198Z,63.80
2018-10-06T10:28:37.099Z,63.60
2018-10-06T10:31:06.812Z,63.50
2018-10-06T10:33:38.053Z,63.20
2018-10-06T10:36:10.044Z,63.30
2018-10-06T10:38:40.616Z,63.00
2018-10-06T10:41:11.278Z,62.80
2018-10-06T10:43:43.050Z,62.60
2018-10-06T10:46:13.429Z,62.50
2018-10-06T10:48:44.587Z,62.60
2018-10-06T10:51:15.005Z,62.60
2018-10-06T10:53:47.704Z,62.50
2018-10-06T10:56:20.292Z,62.40
2018-10-06T10:58:50.565Z,62.30
2018-10-06T11:01:21.466Z,62.10
2018-10-06T11:03:53.030Z,61.90
2018-10-06T11:06:23.832Z,61.90
2018-10-06T11:08:54.562Z,62.10
2018-10-06T11:11:24.846Z,62.00
2018-10-06T11:13:58.100Z,61.80
2018-10-06T11:16:29.671Z,61.70
2018-10-06T11:18:59.891Z,61.90
2018-10-06T11:21:30.538Z,61.90
2018-10-06T11:24:01.704Z,61.70
2018-10-06T11:26:33.271Z,61.80
2018-10-06T11:29:06.106Z,61.70
2018-10-06T11:31:36.658Z,61.60
2018-10-06T11:34:07.243Z,61.60
2018-10-06T11:36:38.217Z,61.50
2018-10-06T11:39:11.690Z,61.40
2018-10-06T11:41:42.341Z,61.40
2018-10-06T11:44:16.540Z,61.20
2018-10-06T11:46:46.811Z,61.30
2018-10-06T11:49:17.541Z,61.30
2018-10-06T11:51:51.937Z,61.20
2018-10-06T11:54:22.753Z,61.10
2018-10-06T11:56:52.453Z,61.40
2018-10-06T11:59:22.662Z,61.20
2018-10-06T12:01:59.436Z,61.10
2018-10-06T12:04:29.063Z,60.90
2018-10-06T12:07:00.437Z,60.60
2018-10-06T12:09:30.525Z,61.40
2018-10-06T12:12:00.057Z,60.60
2018-10-06T12:14:29.864Z,60.60
2018-10-06T12:17:02.075Z,60.70
2018-10-06T12:19:32.945Z,60.60
2018-10-06T12:22:02.650Z,60.60
2018-10-06T12:24:32.896Z,60.60
2018-10-06T12:27:03.640Z,60.50
2018-10-06T12:29:35.879Z,60.40
2018-10-06T12:32:07.973Z,60.30
2018-10-06T12:34:37.597Z,60.00
2018-10-06T12:37:10.038Z,60.30
2018-10-06T12:39:39.908Z,60.40
2018-10-06T12:42:10.250Z,60.50
2018-10-06T12:44:40.971Z,60.10
2018-10-06T12:47:12.955Z,60.00
2018-10-06T12:49:44.887Z,60.20
2018-10-06T12:52:18.286Z,60.50
2018-10-06T12:54:48.911Z,60.40
2018-10-06T12:57:18.761Z,60.20
2018-10-06T12:59:50.617Z,60.10
2018-10-06T13:02:21.213Z,60.40
2018-10-06T13:04:52.019Z,60.60
2018-10-06T13:07:25.221Z,60.60
2018-10-06T13:10:03.447Z,60.70
2018-10-06T13:12:34.196Z,60.70
2018-10-06T13:15:03.939Z,60.70
2018-10-06T13:17:38.360Z,61.00
2018-10-06T13:20:09.602Z,60.90
2018-10-06T13:22:39.552Z,60.90
2018-10-06T13:25:09.301Z,60.90
2018-10-06T13:27:39.035Z,61.00
2018-10-06T13:30:08.643Z,61.20
2018-10-06T13:32:38.788Z,61.40
2018-10-06T13:35:08.395Z,61.70
2018-10-06T13:37:37.869Z,61.90
2018-10-06T13:40:09.617Z,62.10
2018-10-06T13:42:39.711Z,62.20
2018-10-06T13:45:10.623Z,62.30
2018-10-06T13:47:41.580Z,62.60
2018-10-06T13:50:13.776Z,62.70
2018-10-06T13:52:45.599Z,62.80
2018-10-06T13:55:15.788Z,62.90
2018-10-06T13:57:46.106Z,62.90
2018-10-06T14:00:17.461Z,62.60
2018-10-06T14:02:48.115Z,62.60
2018-10-06T14:05:18.992Z,62.70
2018-10-06T14:07:50.278Z,62.70
2018-10-06T14:10:20.079Z,62.90
2018-10-06T14:12:49.817Z,62.70
2018-10-06T14:15:19.550Z,62.90
2018-10-06T14:17:49.827Z,63.20
2018-10-06T14:20:19.581Z,63.60
2018-10-06T14:22:50.889Z,63.80
2018-10-06T14:25:21.696Z,63.90
2018-10-06T14:27:52.972Z,64.10
2018-10-06T14:30:23.373Z,64.30
2018-10-06T14:32:52.826Z,64.40
2018-10-06T14:35:22.375Z,64.30
2018-10-06T14:37:53.242Z,64.50
2018-10-06T14:40:24.612Z,64.90
2018-10-06T14:42:54.875Z,64.80
2018-10-06T14:45:24.653Z,64.80
2018-10-06T14:47:54.966Z,64.80
2018-10-06T14:50:24.440Z,64.80
2018-10-06T14:52:53.994Z,64.60
2018-10-06T14:55:23.524Z,64.60
2018-10-06T14:57:53.080Z,64.70
2018-10-06T15:00:23.294Z,65.40
2018-10-06T15:02:52.848Z,64.60
2018-10-06T15:05:22.819Z,64.60
2018-10-06T15:07:53.285Z,64.60
2018-10-06T15:10:24.384Z,64.70
2018-10-06T15:12:55.654Z,64.90
2018-10-06T15:15:26.689Z,65.00
2018-10-06T15:17:58.607Z,65.10
2018-10-06T15:20:29.481Z,65.10
2018-10-06T15:22:59.968Z,65.30
2018-10-06T15:25:30.487Z,65.70
2018-10-06T15:28:01.282Z,65.80
2018-10-06T15:30:32.923Z,66.00
2018-10-06T15:33:03.458Z,65.80
2018-10-06T15:35:34.720Z,65.90
2018-10-06T15:38:06.759Z,65.90
2018-10-06T15:40:37.513Z,65.80
2018-10-06T15:43:08.158Z,65.80
2018-10-06T15:45:38.774Z,66.60
2018-10-06T15:48:09.339Z,66.00
2018-10-06T15:50:39.033Z,66.10
2018-10-06T15:53:09.468Z,66.10
2018-10-06T15:55:39.251Z,66.10
2018-10-06T15:58:10.364Z,66.40
2018-10-06T16:00:42.221Z,66.60
2018-10-06T16:03:14.181Z,66.90
2018-10-06T16:05:43.805Z,67.10
2018-10-06T16:08:14.095Z,67.50
2018-10-06T16:10:43.801Z,67.70
2018-10-06T16:13:14.512Z,67.90
2018-10-06T16:15:44.427Z,68.20
2018-10-06T16:18:15.268Z,68.40
2018-10-06T16:20:45.915Z,68.80
2018-10-06T16:23:16.341Z,69.30
2018-10-06T16:25:46.505Z,69.50
2018-10-06T16:28:16.054Z,69.90
2018-10-06T16:30:46.187Z,70.00
2018-10-06T16:33:16.654Z,70.30
2018-10-06T16:35:46.993Z,70.70
2018-10-06T16:38:16.669Z,71.10
2018-10-06T16:40:48.180Z,71.30
2018-10-06T16:43:17.709Z,71.50
2018-10-06T16:45:48.015Z,72.30
2018-10-06T16:48:17.982Z,72.40
2018-10-06T16:50:48.648Z,72.40
2018-10-06T16:53:19.804Z,72.60
2018-10-06T16:55:49.864Z,72.80
2018-10-06T16:58:20.962Z,73.20
2018-10-06T17:00:50.639Z,73.60
2018-10-06T17:03:21.206Z,73.80
2018-10-06T17:05:50.964Z,74.10
2018-10-06T17:08:22.675Z,74.90
2018-10-06T17:10:52.962Z,74.70
2018-10-06T17:13:23.489Z,75.10
2018-10-06T17:15:53.659Z,75.40
2018-10-06T17:19:25.991Z,75.60
2018-10-06T17:21:57.013Z,75.70
2018-10-06T17:24:27.766Z,76.10
2018-10-06T17:26:59.672Z,76.30
2018-10-06T17:29:29.683Z,76.70
2018-10-06T17:31:59.947Z,76.80
2018-10-06T17:34:29.872Z,77.00
2018-10-06T17:37:02.831Z,77.20
2018-10-06T17:39:41.924Z,77.20
2018-10-06T17:42:12.568Z,77.40
2018-10-06T17:44:42.360Z,77.70
2018-10-06T17:47:13.200Z,77.80
2018-10-06T17:49:43.027Z,78.10
2018-10-06T17:52:14.856Z,78.40
2018-10-06T17:54:45.113Z,78.40
2018-10-06T17:57:17.387Z,78.60
2018-10-06T17:59:47.345Z,78.80
2018-10-06T18:02:21.673Z,78.90
2018-10-06T18:04:51.349Z,79.20
2018-10-06T18:07:21.476Z,79.40
2018-10-06T18:09:53.336Z,79.50
2018-10-06T18:12:23.105Z,79.60
2018-10-06T18:14:53.467Z,79.50
2018-10-06T18:17:24.194Z,79.60
2018-10-06T18:19:55.446Z,79.80
2018-10-06T18:22:26.523Z,80.10
2018-10-06T18:24:57.243Z,80.00
2018-10-06T18:27:29.464Z,80.10
2018-10-06T18:30:00.478Z,80.30
2018-10-06T18:32:33.088Z,80.50
2018-10-06T18:35:03.994Z,80.70
2018-10-06T18:37:35.149Z,80.90
2018-10-06T18:40:06.925Z,81.30
2018-10-06T18:42:37.389Z,81.50
2018-10-06T18:45:12.622Z,81.50
2018-10-06T18:47:42.683Z,81.50
2018-10-06T18:50:12.390Z,81.50
2018-10-06T18:52:43.331Z,81.90
2018-10-06T18:55:13.689Z,81.90
2018-10-06T18:57:44.340Z,81.80
2018-10-06T19:00:14.514Z,81.80
2018-10-06T19:02:44.060Z,81.90
2018-10-06T19:05:14.285Z,81.90
2018-10-06T19:07:43.878Z,82.00
2018-10-06T19:10:13.577Z,82.10
2018-10-06T19:12:44.023Z,82.30
2018-10-06T19:15:14.877Z,82.40
2018-10-06T19:17:49.499Z,82.50
2018-10-06T19:20:21.162Z,82.60
2018-10-06T19:22:59.552Z,82.60
2018-10-06T19:25:30.103Z,82.70
2018-10-06T19:28:05.141Z,83.30
2018-10-06T19:30:34.932Z,83.50
2018-10-06T19:33:05.127Z,83.50
2018-10-06T19:38:36.116Z,83.80
2018-10-06T19:41:07.562Z,84.30
2018-10-06T19:43:38.813Z,84.30
2018-10-06T19:46:10.905Z,84.20
2018-10-06T19:48:41.699Z,84.30
2018-10-06T19:51:11.502Z,84.60
2018-10-06T19:53:42.479Z,84.90
2018-10-06T19:56:14.531Z,84.90
2018-10-06T19:58:46.576Z,85.00
2018-10-06T20:01:17.078Z,85.30
2018-10-06T20:03:49.722Z,85.50
2018-10-06T20:06:19.819Z,85.90
2018-10-06T20:08:50.035Z,86.40
2018-10-06T20:11:20.677Z,87.20
2018-10-06T20:13:51.362Z,87.30
2018-10-06T20:16:21.132Z,87.50
2018-10-06T20:18:51.636Z,87.40
2018-10-06T20:21:21.320Z,87.40
2018-10-06T20:23:51.721Z,87.60
2018-10-06T20:26:21.679Z,87.80
2018-10-06T20:28:51.256Z,87.90
2018-10-06T20:31:21.485Z,88.10
2018-10-06T20:33:52.355Z,88.20
2018-10-06T20:36:28.025Z,88.10
2018-10-06T20:38:58.247Z,88.00
2018-10-06T20:41:28.539Z,88.10
2018-10-06T20:43:59.982Z,88.20
2018-10-06T20:46:31.529Z,88.20
2018-10-06T20:49:01.545Z,88.90
2018-10-06T20:51:31.956Z,88.30
2018-10-06T20:54:02.469Z,88.20
2018-10-06T20:56:32.035Z,88.20
2018-10-06T20:59:09.267Z,88.40
2018-10-06T21:01:38.963Z,88.30
2018-10-06T21:04:09.482Z,89.10
2018-10-06T21:06:39.271Z,88.60
2018-10-06T21:09:12.611Z,88.70
2018-10-06T21:11:46.657Z,88.70
2018-10-06T21:14:17.872Z,88.80
2018-10-06T21:16:47.532Z,88.80
2018-10-06T21:19:17.275Z,88.90
2018-10-06T21:21:48.366Z,89.10
2018-10-06T21:24:19.491Z,89.20
2018-10-06T21:26:58.199Z,89.20
2018-10-06T21:29:29.710Z,89.10
2018-10-06T21:32:00.912Z,89.00
2018-10-06T21:34:31.234Z,88.80
2018-10-06T21:37:01.735Z,89.00
2018-10-06T21:39:32.509Z,89.00
2018-10-06T21:42:02.905Z,89.10
2018-10-06T21:44:32.380Z,89.10
2018-10-06T21:47:05.290Z,89.70
2018-10-06T21:49:38.416Z,90.00
2018-10-06T21:52:09.517Z,90.10
2018-10-06T21:54:42.589Z,90.30
2018-10-06T21:57:18.524Z,90.70
2018-10-06T21:59:49.905Z,90.50
2018-10-06T22:02:20.393Z,90.60
2018-10-06T22:04:50.598Z,90.60
2018-10-06T22:07:20.323Z,90.60
2018-10-06T22:09:50.545Z,90.60
2018-10-06T22:12:21.150Z,91.00
2018-10-06T22:14:53.729Z,91.00
2018-10-06T22:17:24.335Z,91.00
2018-10-06T22:19:54.836Z,91.10
2018-10-06T22:22:26.593Z,91.10
2018-10-06T22:24:58.009Z,91.00
2018-10-06T22:27:28.557Z,90.90
2018-10-06T22:29:59.200Z,91.00
2018-10-06T22:32:29.936Z,91.00
2018-10-06T22:35:01.798Z,90.90
2018-10-06T22:37:32.504Z,90.90
2018-10-06T22:40:03.016Z,90.90
2018-10-06T22:42:34.005Z,90.90
2018-10-06T22:45:05.134Z,90.90
2018-10-06T22:47:35.584Z,90.90
2018-10-06T22:50:07.076Z,90.90
2018-10-06T22:52:38.685Z,90.80
2018-10-06T22:55:10.149Z,90.80
2018-10-06T22:57:41.061Z,90.70
2018-10-06T23:00:12.547Z,90.70
2018-10-06T23:02:42.470Z,90.70
2018-10-06T23:05:17.412Z,90.70
2018-10-06T23:07:48.356Z,90.70
2018-10-06T23:10:18.369Z,90.80
2018-10-06T23:12:49.193Z,90.80
2018-10-06T23:15:18.675Z,90.80
2018-10-06T23:17:48.382Z,90.80
2018-10-06T23:20:18.506Z,90.80
2018-10-06T23:22:50.341Z,91.30
2018-10-06T23:25:20.674Z,91.10
2018-10-06T23:27:50.440Z,91.10
2018-10-06T23:30:20.784Z,91.40
2018-10-06T23:32:50.588Z,91.40
2018-10-06T23:35:20.134Z,91.50
2018-10-06T23:37:49.741Z,91.60
2018-10-06T23:40:20.784Z,91.50
2018-10-06T23:42:51.154Z,91.50
2018-10-06T23:45:20.754Z,91.50
2018-10-06T23:47:50.372Z,91.60
2018-10-06T23:50:20.137Z,91.60
2018-10-06T23:52:50.140Z,91.60
2018-10-06T23:55:19.869Z,91.60
2018-10-06T23:57:49.591Z,91.60
